createdAt,value
2019-02-19T00:00:08.199Z,21.12
2019-02-19T00:02:09.794Z,21.19
2019-02-19T00:04:11.399Z,21.28
2019-02-19T00:06:12.997Z,21.32
2019-02-19T00:08:14.608Z,21.34
2019-02-19T00:10:16.209Z,21.33
2019-02-19T00:12:17.857Z,21.33
2019-02-19T00:14:19.440Z,21.36
2019-02-19T00:16:21.042Z,21.37
2019-02-19T00:18:22.672Z,21.36
2019-02-19T00:20:24.284Z,21.14
2019-02-19T00:22:25.882Z,21.36
2019-02-19T00:24:27.491Z,21.37
2019-02-19T00:26:29.094Z,21.37
2019-02-19T00:28:30.689Z,21.38
2019-02-19T00:30:32.314Z,21.37
2019-02-19T00:32:33.920Z,21.36
2019-02-19T00:34:35.532Z,21.35
2019-02-19T00:36:37.144Z,21.36
2019-02-19T00:38:38.776Z,21.33
2019-02-19T00:40:40.388Z,21.35
2019-02-19T00:42:41.995Z,21.34
2019-02-19T00:44:43.600Z,21.33
2019-02-19T00:46:45.197Z,21.34
2019-02-19T00:48:46.803Z,21.32
2019-02-19T00:50:48.459Z,21.33
2019-02-19T00:52:50.044Z,21.32
2019-02-19T00:54:51.639Z,21.30
2019-02-19T00:56:53.247Z,21.26
2019-02-19T00:58:54.870Z,21.22
2019-02-19T01:00:56.489Z,21.23
2019-02-19T01:02:58.110Z,21.23
2019-02-19T01:04:59.719Z,21.24
2019-02-19T01:07:01.318Z,21.24
2019-02-19T01:09:02.922Z,21.09
2019-02-19T01:11:04.536Z,21.02
2019-02-19T01:13:06.138Z,21.03
2019-02-19T01:15:07.762Z,21.04
2019-02-19T01:17:09.412Z,21.03
2019-02-19T01:19:11.026Z,21.02
2019-02-19T01:21:12.661Z,21.03
2019-02-19T01:23:14.259Z,20.83
2019-02-19T01:25:15.889Z,21.02
2019-02-19T01:27:17.546Z,21.02
2019-02-19T01:29:19.145Z,21.02
2019-02-19T01:31:20.743Z,21.04
2019-02-19T01:33:22.387Z,21.05
2019-02-19T01:35:23.991Z,21.02
2019-02-19T01:37:25.598Z,21.04
2019-02-19T01:39:27.184Z,21.04
2019-02-19T01:41:28.792Z,21.04
2019-02-19T01:43:30.404Z,21.06
2019-02-19T01:45:34.021Z,21.08
2019-02-19T01:47:33.704Z,21.09
2019-02-19T01:49:35.348Z,21.09
2019-02-19T01:51:36.954Z,21.13
2019-02-19T01:53:38.549Z,21.15
2019-02-19T01:55:40.179Z,21.14
2019-02-19T01:57:41.778Z,20.94
2019-02-19T01:59:43.422Z,21.13
2019-02-19T02:01:45.016Z,21.14
2019-02-19T02:03:46.628Z,21.11
2019-02-19T02:05:48.241Z,21.11
2019-02-19T02:07:49.845Z,21.07
2019-02-19T02:09:51.441Z,21.04
2019-02-19T02:11:53.033Z,21.04
2019-02-19T02:13:54.644Z,21.07
2019-02-19T02:15:56.284Z,21.10
2019-02-19T02:17:57.892Z,21.11
2019-02-19T02:19:59.503Z,21.10
2019-02-19T02:22:01.113Z,21.09
2019-02-19T02:24:02.738Z,21.11
2019-02-19T02:26:04.340Z,21.10
2019-02-19T02:28:05.963Z,21.10
2019-02-19T02:30:07.602Z,21.09
2019-02-19T02:32:09.211Z,21.09
2019-02-19T02:34:10.804Z,21.07
2019-02-19T02:36:12.401Z,21.08
2019-02-19T02:38:14.000Z,21.07
2019-02-19T02:40:15.597Z,21.07
2019-02-19T02:42:17.252Z,21.09
2019-02-19T02:44:18.859Z,21.13
2019-02-19T02:46:20.468Z,21.21
2019-02-19T02:48:22.081Z,21.25
2019-02-19T02:50:23.679Z,21.27
2019-02-19T02:52:25.292Z,21.30
2019-02-19T02:54:26.908Z,21.33
2019-02-19T02:56:28.515Z,21.38
2019-02-19T02:58:30.128Z,21.38
2019-02-19T03:00:31.770Z,21.43
2019-02-19T03:02:33.390Z,21.43
2019-02-19T03:04:35.028Z,21.45
2019-02-19T03:06:38.117Z,21.46
2019-02-19T03:08:39.715Z,21.45
2019-02-19T03:10:41.358Z,21.46
2019-02-19T03:12:42.950Z,21.44
2019-02-19T03:14:44.555Z,21.42
2019-02-19T03:16:46.153Z,21.39
2019-02-19T03:18:47.753Z,21.38
2019-02-19T03:20:49.351Z,21.34
2019-02-19T03:22:50.992Z,21.29
2019-02-19T03:24:52.576Z,21.23
2019-02-19T03:26:54.185Z,21.21
2019-02-19T03:28:55.789Z,21.17
2019-02-19T03:30:57.378Z,21.20
2019-02-19T03:32:58.975Z,21.19
2019-02-19T03:35:00.598Z,21.18
2019-02-19T03:37:02.193Z,21.20
2019-02-19T03:39:03.789Z,21.20
2019-02-19T03:41:05.412Z,21.22
2019-02-19T03:43:07.010Z,21.24
2019-02-19T03:45:08.606Z,21.25
2019-02-19T03:47:10.220Z,21.26
2019-02-19T03:49:11.819Z,21.28
2019-02-19T03:51:13.425Z,21.29
2019-02-19T03:53:15.029Z,21.32
2019-02-19T03:55:16.643Z,21.29
2019-02-19T03:57:18.265Z,21.24
2019-02-19T03:59:19.863Z,21.23
2019-02-19T04:01:21.458Z,21.23
2019-02-19T04:03:23.095Z,21.23
2019-02-19T04:05:24.693Z,21.27
2019-02-19T04:07:26.296Z,21.26
2019-02-19T04:09:27.891Z,21.26
2019-02-19T04:11:29.505Z,21.25
2019-02-19T04:13:31.097Z,21.30
2019-02-19T04:15:32.694Z,21.38
2019-02-19T04:17:34.301Z,21.40
2019-02-19T04:19:35.911Z,21.39
2019-02-19T04:21:37.545Z,21.41
2019-02-19T04:23:39.152Z,21.41
2019-02-19T04:25:40.746Z,21.42
2019-02-19T04:27:42.363Z,21.42
2019-02-19T04:29:43.975Z,21.42
2019-02-19T04:31:45.577Z,21.39
2019-02-19T04:33:47.180Z,21.38
2019-02-19T04:35:48.778Z,21.37
2019-02-19T04:37:50.418Z,21.36
2019-02-19T04:39:52.030Z,21.36
2019-02-19T04:41:53.639Z,21.33
2019-02-19T04:43:55.248Z,21.31
2019-02-19T04:45:56.846Z,21.30
2019-02-19T04:47:58.466Z,21.30
2019-02-19T04:50:00.055Z,21.27
2019-02-19T04:52:01.699Z,21.32
2019-02-19T04:54:03.317Z,21.30
2019-02-19T04:56:04.914Z,21.29
2019-02-19T04:58:06.673Z,21.30
2019-02-19T05:00:08.294Z,21.28
2019-02-19T05:02:09.889Z,21.27
2019-02-19T05:04:11.485Z,21.24
2019-02-19T05:06:13.096Z,21.20
2019-02-19T05:08:14.695Z,21.16
2019-02-19T05:10:16.317Z,21.09
2019-02-19T05:12:17.962Z,21.10
2019-02-19T05:14:19.562Z,21.05
2019-02-19T05:16:21.169Z,21.05
2019-02-19T05:18:23.515Z,20.90
2019-02-19T05:20:25.165Z,20.98
2019-02-19T05:22:26.779Z,20.97
2019-02-19T05:24:28.391Z,20.96
2019-02-19T05:26:29.991Z,20.95
2019-02-19T05:28:31.595Z,20.96
2019-02-19T05:30:33.184Z,20.99
2019-02-19T05:32:34.811Z,21.03
2019-02-19T05:34:36.419Z,21.07
2019-02-19T05:36:38.021Z,21.13
2019-02-19T05:38:39.635Z,21.18
2019-02-19T05:40:41.256Z,21.25
2019-02-19T05:42:42.848Z,21.31
2019-02-19T05:44:44.459Z,21.36
2019-02-19T05:46:49.963Z,21.41
2019-02-19T05:48:47.729Z,21.44
2019-02-19T05:50:49.379Z,21.46
2019-02-19T05:52:50.997Z,21.48
2019-02-19T05:54:52.608Z,21.49
2019-02-19T05:56:54.228Z,21.53
2019-02-19T05:58:55.844Z,21.54
2019-02-19T06:00:57.462Z,21.41
2019-02-19T06:02:59.088Z,21.55
2019-02-19T06:05:00.700Z,21.52
2019-02-19T06:07:02.344Z,21.51
2019-02-19T06:09:03.960Z,21.48
2019-02-19T06:11:05.558Z,21.43
2019-02-19T06:13:07.172Z,21.39
2019-02-19T06:15:08.829Z,21.37
2019-02-19T06:17:10.432Z,21.33
2019-02-19T06:19:12.020Z,21.32
2019-02-19T06:21:13.660Z,21.31
2019-02-19T06:23:15.274Z,21.31
2019-02-19T06:25:16.904Z,21.36
2019-02-19T06:27:18.547Z,21.39
2019-02-19T06:29:20.158Z,21.38
2019-02-19T06:31:21.764Z,21.36
2019-02-19T06:33:23.367Z,21.35
2019-02-19T06:35:24.962Z,21.33
2019-02-19T06:37:26.597Z,21.31
2019-02-19T06:39:28.217Z,21.29
2019-02-19T06:41:29.856Z,21.28
2019-02-19T06:43:31.494Z,21.25
2019-02-19T06:45:33.097Z,21.22
2019-02-19T06:47:34.744Z,21.19
2019-02-19T06:49:36.360Z,21.16
2019-02-19T06:51:37.969Z,21.14
2019-02-19T06:53:39.575Z,21.13
2019-02-19T06:55:41.181Z,21.13
2019-02-19T06:57:42.817Z,21.12
2019-02-19T06:59:44.430Z,21.21
2019-02-19T07:02:01.086Z,21.26
2019-02-19T07:04:03.308Z,21.30
2019-02-19T07:06:04.956Z,21.35
2019-02-19T07:08:06.607Z,21.27
2019-02-19T07:10:08.220Z,21.36
2019-02-19T07:12:09.821Z,21.41
2019-02-19T07:14:11.432Z,21.47
2019-02-19T07:16:13.074Z,21.33
2019-02-19T07:18:14.744Z,21.25
2019-02-19T07:20:16.391Z,21.42
2019-02-19T07:22:18.039Z,21.10
2019-02-19T07:24:19.642Z,21.23
2019-02-19T07:26:21.250Z,21.19
2019-02-19T07:28:22.861Z,21.19
2019-02-19T07:30:24.474Z,21.18
2019-02-19T07:32:26.079Z,21.18
2019-02-19T07:34:27.701Z,21.18
2019-02-19T07:36:29.322Z,21.19
2019-02-19T07:38:30.922Z,21.19
2019-02-19T07:40:32.555Z,21.18
2019-02-19T07:42:34.153Z,21.16
2019-02-19T07:44:35.754Z,21.14
2019-02-19T07:46:37.348Z,21.13
2019-02-19T07:48:39.843Z,21.12
2019-02-19T07:50:41.446Z,21.11
2019-02-19T07:52:43.088Z,21.08
2019-02-19T07:54:44.699Z,21.06
2019-02-19T07:56:46.292Z,21.05
2019-02-19T07:58:48.743Z,21.02
2019-02-19T08:00:50.412Z,21.02
2019-02-19T08:02:52.034Z,21.00
2019-02-19T08:04:53.665Z,20.98
2019-02-19T08:06:55.296Z,20.98
2019-02-19T08:08:56.895Z,20.97
2019-02-19T08:10:58.489Z,20.97
2019-02-19T08:13:00.110Z,20.95
2019-02-19T08:15:01.706Z,20.96
2019-02-19T08:17:03.904Z,20.93
2019-02-19T08:19:05.543Z,20.94
2019-02-19T08:21:07.150Z,20.95
2019-02-19T08:23:08.783Z,20.95
2019-02-19T08:25:10.406Z,20.96
2019-02-19T08:27:12.074Z,20.78
2019-02-19T08:29:14.133Z,21.01
2019-02-19T08:31:15.358Z,21.06
2019-02-19T08:33:16.965Z,21.14
2019-02-19T08:35:18.596Z,21.22
2019-02-19T08:37:20.227Z,21.31
2019-02-19T08:39:21.863Z,21.36
2019-02-19T08:41:23.516Z,21.39
2019-02-19T08:43:25.170Z,21.44
2019-02-19T08:45:26.775Z,21.48
2019-02-19T08:47:28.416Z,21.64
2019-02-19T08:49:30.060Z,21.75
2019-02-19T08:51:31.658Z,21.62
2019-02-19T08:53:33.283Z,21.58
2019-02-19T08:55:35.003Z,21.58
2019-02-19T08:57:36.630Z,21.59
2019-02-19T08:59:38.244Z,21.58
2019-02-19T09:01:39.842Z,21.57
2019-02-19T09:03:41.481Z,21.57
2019-02-19T09:05:43.091Z,21.54
2019-02-19T09:07:44.696Z,21.50
2019-02-19T09:09:46.407Z,21.50
2019-02-19T09:11:48.020Z,21.52
2019-02-19T09:13:49.636Z,21.56
2019-02-19T09:15:51.228Z,21.59
2019-02-19T09:17:52.856Z,21.57
2019-02-19T09:19:54.469Z,21.57
2019-02-19T09:21:56.100Z,21.59
2019-02-19T09:23:58.519Z,21.62
2019-02-19T09:25:59.357Z,21.63
2019-02-19T09:28:01.018Z,21.66
2019-02-19T09:30:02.634Z,21.65
2019-02-19T09:32:04.270Z,21.63
2019-02-19T09:34:05.870Z,21.63
2019-02-19T09:36:07.475Z,21.54
2019-02-19T09:38:09.102Z,21.53
2019-02-19T09:40:10.695Z,21.54
2019-02-19T09:42:12.316Z,21.54
2019-02-19T09:44:14.654Z,21.53
2019-02-19T09:46:16.896Z,21.54
2019-02-19T09:48:18.525Z,21.50
2019-02-19T09:50:20.193Z,21.32
2019-02-19T09:52:21.885Z,21.34
2019-02-19T09:54:23.513Z,21.40
2019-02-19T09:56:25.140Z,21.47
2019-02-19T09:58:26.789Z,21.52
2019-02-19T10:00:28.394Z,21.53
2019-02-19T10:02:30.014Z,21.53
2019-02-19T10:04:31.771Z,21.62
2019-02-19T10:06:33.374Z,21.64
2019-02-19T10:08:34.964Z,21.69
2019-02-19T10:10:36.569Z,21.53
2019-02-19T10:12:38.184Z,21.72
2019-02-19T10:14:39.783Z,21.72
2019-02-19T10:16:42.022Z,21.71
2019-02-19T10:18:46.123Z,21.76
2019-02-19T10:20:47.729Z,21.79
2019-02-19T10:22:49.349Z,21.79
2019-02-19T10:24:52.407Z,21.82
2019-02-19T10:26:52.662Z,21.86
2019-02-19T10:29:04.190Z,21.92
2019-02-19T10:31:05.865Z,21.92
2019-02-19T10:33:07.495Z,21.89
2019-02-19T10:35:09.098Z,21.90
2019-02-19T10:37:10.741Z,21.90
2019-02-19T10:39:12.327Z,21.90
2019-02-19T10:41:13.922Z,21.89
2019-02-19T10:43:15.522Z,21.85
2019-02-19T10:45:17.120Z,21.86
2019-02-19T10:47:18.718Z,21.84
2019-02-19T10:49:20.350Z,21.85
2019-02-19T10:51:21.963Z,21.87
2019-02-19T10:53:23.599Z,21.86
2019-02-19T10:55:25.286Z,21.83
2019-02-19T10:57:26.896Z,21.81
2019-02-19T10:59:28.510Z,21.82
2019-02-19T11:01:30.114Z,21.79
2019-02-19T11:03:31.762Z,21.77
2019-02-19T11:05:33.353Z,21.76
2019-02-19T11:07:34.955Z,21.77
2019-02-19T11:09:36.609Z,21.80
2019-02-19T11:11:38.214Z,21.79
2019-02-19T11:13:39.810Z,21.79
2019-02-19T11:15:41.410Z,21.79
2019-02-19T11:17:43.009Z,21.80
2019-02-19T11:19:44.592Z,21.78
2019-02-19T11:21:46.214Z,21.77
2019-02-19T11:23:47.806Z,21.78
2019-02-19T11:25:49.388Z,21.77
2019-02-19T11:27:50.973Z,21.78
2019-02-19T11:29:52.570Z,21.77
2019-02-19T11:31:54.223Z,21.76
2019-02-19T11:33:55.825Z,21.76
2019-02-19T11:35:57.421Z,21.76
2019-02-19T11:37:59.026Z,21.75
2019-02-19T11:40:00.643Z,21.73
2019-02-19T11:42:02.239Z,21.74
2019-02-19T11:44:03.836Z,21.76
2019-02-19T11:46:05.430Z,21.73
2019-02-19T11:48:07.011Z,21.72
2019-02-19T11:50:08.644Z,21.72
2019-02-19T11:52:10.255Z,21.74
2019-02-19T11:54:11.867Z,21.77
2019-02-19T11:56:13.519Z,21.72
2019-02-19T11:58:15.113Z,21.70
2019-02-19T12:00:18.268Z,21.66
2019-02-19T12:02:19.902Z,21.66
2019-02-19T12:04:21.497Z,21.63
2019-02-19T12:06:23.097Z,21.53
2019-02-19T12:08:24.709Z,21.49
2019-02-19T12:10:26.307Z,21.50
2019-02-19T12:12:27.902Z,21.51
2019-02-19T12:14:29.526Z,21.49
2019-02-19T12:16:31.132Z,21.47
2019-02-19T12:18:32.725Z,21.49
2019-02-19T12:20:34.336Z,21.50
2019-02-19T12:22:35.974Z,21.49
2019-02-19T12:24:37.665Z,21.50
2019-02-19T12:26:39.292Z,21.42
2019-02-19T12:28:40.914Z,21.38
2019-02-19T12:30:42.518Z,21.36
2019-02-19T12:32:44.115Z,21.16
2019-02-19T12:34:45.747Z,21.36
2019-02-19T12:36:47.374Z,21.34
2019-02-19T12:38:48.983Z,21.29
2019-02-19T12:40:50.639Z,21.28
2019-02-19T12:42:52.233Z,21.24
2019-02-19T12:44:53.843Z,21.22
2019-02-19T12:46:55.469Z,21.20
2019-02-19T12:48:57.073Z,21.18
2019-02-19T12:50:58.674Z,21.17
2019-02-19T12:53:00.270Z,21.16
2019-02-19T12:55:01.904Z,21.15
2019-02-19T12:57:03.516Z,21.12
2019-02-19T12:59:05.168Z,21.11
2019-02-19T13:01:06.761Z,21.09
2019-02-19T13:03:08.364Z,21.07
2019-02-19T13:05:09.976Z,21.04
2019-02-19T13:07:11.560Z,21.03
2019-02-19T13:09:13.204Z,21.01
2019-02-19T13:11:14.805Z,20.98
2019-02-19T13:13:16.404Z,20.95
2019-02-19T13:15:17.997Z,20.97
2019-02-19T13:17:19.589Z,20.95
2019-02-19T13:19:21.193Z,21.01
2019-02-19T13:21:22.828Z,20.98
2019-02-19T13:23:24.430Z,20.98
2019-02-19T13:25:26.027Z,20.99
2019-02-19T13:27:27.630Z,20.99
2019-02-19T13:29:29.275Z,20.98
2019-02-19T13:31:30.870Z,21.00
2019-02-19T13:33:32.475Z,21.01
2019-02-19T13:35:34.090Z,21.00
2019-02-19T13:37:35.703Z,21.02
2019-02-19T13:39:37.315Z,21.02
2019-02-19T13:41:38.938Z,21.02
2019-02-19T13:43:40.572Z,21.03
2019-02-19T13:45:42.176Z,21.05
2019-02-19T13:47:43.775Z,21.02
2019-02-19T13:49:45.401Z,21.04
2019-02-19T13:51:47.002Z,21.05
2019-02-19T13:53:49.446Z,21.08
2019-02-19T13:55:51.091Z,21.06
2019-02-19T13:57:52.697Z,21.08
2019-02-19T13:59:54.304Z,21.10
2019-02-19T14:01:55.940Z,21.10
2019-02-19T14:03:57.560Z,21.12
2019-02-19T14:05:59.162Z,21.07
2019-02-19T14:08:00.769Z,21.14
2019-02-19T14:10:02.435Z,21.15
2019-02-19T14:12:04.039Z,21.15
2019-02-19T14:14:06.452Z,21.14
2019-02-19T14:16:08.058Z,21.14
2019-02-19T14:18:09.672Z,21.13
2019-02-19T14:20:11.258Z,21.11
2019-02-19T14:22:31.745Z,21.09
2019-02-19T14:24:39.920Z,21.04
2019-02-19T14:26:47.155Z,21.00
2019-02-19T14:29:02.421Z,20.97
2019-02-19T14:31:21.955Z,20.90
2019-02-19T14:33:23.596Z,20.87
2019-02-19T14:35:40.976Z,20.86
2019-02-19T14:38:00.387Z,20.86
2019-02-19T14:40:10.024Z,20.86
2019-02-19T14:42:06.945Z,21.11
2019-02-19T14:44:15.224Z,21.43
2019-02-19T14:46:35.709Z,21.35
2019-02-19T14:48:47.248Z,21.38
2019-02-19T14:51:07.544Z,21.46
2019-02-19T14:53:09.147Z,21.40
2019-02-19T14:55:30.557Z,21.54
2019-02-19T14:57:33.937Z,21.60
2019-02-19T14:59:40.138Z,21.65
2019-02-19T15:01:47.443Z,21.75
2019-02-19T15:04:04.879Z,22.03
2019-02-19T15:06:08.392Z,22.14
2019-02-19T15:08:27.674Z,22.25
2019-02-19T15:10:31.106Z,22.31
2019-02-19T15:12:48.580Z,22.30
2019-02-19T15:14:52.745Z,22.37
2019-02-19T15:17:09.226Z,22.37
2019-02-19T15:19:13.442Z,22.37
2019-02-19T15:21:18.612Z,22.37
2019-02-19T15:23:24.800Z,22.34
2019-02-19T15:25:27.785Z,22.34
2019-02-19T15:27:29.861Z,22.35
2019-02-19T15:29:47.164Z,22.34
2019-02-19T15:31:51.787Z,22.32
2019-02-19T15:33:53.426Z,22.28
2019-02-19T15:35:56.992Z,22.28
2019-02-19T15:38:04.394Z,22.28
2019-02-19T15:40:06.762Z,22.25
2019-02-19T15:42:27.036Z,22.24
2019-02-19T15:44:43.521Z,22.21
2019-02-19T15:46:53.820Z,22.21
2019-02-19T15:48:58.272Z,22.19
2019-02-19T15:51:00.904Z,22.18
2019-02-19T15:53:21.366Z,22.15
2019-02-19T15:55:22.958Z,22.11
2019-02-19T15:57:25.515Z,22.10
2019-02-19T15:59:32.954Z,22.07
2019-02-19T16:01:40.141Z,22.05
2019-02-19T16:03:41.754Z,22.02
2019-02-19T16:05:48.874Z,21.96
2019-02-19T16:07:51.265Z,22.01
2019-02-19T16:09:55.404Z,22.01
2019-02-19T16:11:58.421Z,22.01
2019-02-19T16:14:00.766Z,22.08
2019-02-19T16:16:06.860Z,22.20
2019-02-19T16:18:24.075Z,22.29
2019-02-19T16:20:25.697Z,22.35
2019-02-19T16:22:29.055Z,22.37
2019-02-19T16:24:34.280Z,22.21
2019-02-19T16:26:41.587Z,22.05
2019-02-19T16:28:45.695Z,21.96
2019-02-19T16:30:48.728Z,21.87
2019-02-19T16:32:56.229Z,22.25
2019-02-19T16:35:06.457Z,22.67
2019-02-19T16:37:10.703Z,22.77
2019-02-19T16:39:15.870Z,22.88
2019-02-19T16:41:37.230Z,22.98
2019-02-19T16:43:42.786Z,23.00
2019-02-19T16:45:50.787Z,23.06
2019-02-19T16:47:57.969Z,23.33
2019-02-19T16:50:07.224Z,23.43
2019-02-19T16:52:02.054Z,23.40
2019-02-19T16:54:04.159Z,23.42
2019-02-19T16:56:10.521Z,23.43
2019-02-19T16:58:14.521Z,23.40
2019-02-19T17:00:16.145Z,23.48
2019-02-19T17:02:22.260Z,23.45
2019-02-19T17:04:26.379Z,23.63
2019-02-19T17:06:42.849Z,23.47
2019-02-19T17:08:45.355Z,23.47
2019-02-19T17:10:48.724Z,23.33
2019-02-19T17:12:55.922Z,23.46
2019-02-19T17:15:13.206Z,23.51
2019-02-19T17:17:24.740Z,23.48
2019-02-19T17:19:37.086Z,23.57
2019-02-19T17:21:39.284Z,23.46
2019-02-19T17:23:42.212Z,23.51
2019-02-19T17:25:43.706Z,23.42
2019-02-19T17:27:47.161Z,23.36
2019-02-19T17:30:05.666Z,23.65
2019-02-19T17:32:11.941Z,23.41
2019-02-19T17:34:27.414Z,23.25
2019-02-19T17:36:29.056Z,23.11
2019-02-19T17:38:32.486Z,22.92
2019-02-19T17:40:36.726Z,22.97
2019-02-19T17:42:39.999Z,22.95
2019-02-19T17:44:59.554Z,22.97
2019-02-19T17:47:04.029Z,23.03
2019-02-19T17:49:12.370Z,23.32
2019-02-19T17:51:14.739Z,23.20
2019-02-19T17:53:16.842Z,23.15
2019-02-19T17:55:34.798Z,22.82
2019-02-19T17:57:38.338Z,22.97
2019-02-19T17:59:55.639Z,23.09
2019-02-19T18:01:59.207Z,23.32
2019-02-19T18:04:02.778Z,23.20
2019-02-19T18:06:22.202Z,23.24
2019-02-19T18:08:43.560Z,23.16
2019-02-19T18:10:47.142Z,23.11
2019-02-19T18:12:52.608Z,23.24
2019-02-19T18:15:00.000Z,23.29
2019-02-19T18:17:04.355Z,23.38
2019-02-19T18:19:06.687Z,23.09
2019-02-19T18:21:08.355Z,23.38
2019-02-19T18:23:10.011Z,23.36
2019-02-19T18:25:11.610Z,23.49
2019-02-19T18:27:13.214Z,23.45
2019-02-19T18:29:14.828Z,23.45
2019-02-19T18:31:16.456Z,23.33
2019-02-19T18:33:18.048Z,23.34
2019-02-19T18:35:19.665Z,23.15
2019-02-19T18:37:21.282Z,23.32
2019-02-19T18:39:22.882Z,23.40
2019-02-19T18:41:25.359Z,23.18
2019-02-19T18:43:26.971Z,22.77
2019-02-19T18:45:28.618Z,23.24
2019-02-19T18:47:30.214Z,22.92
2019-02-19T18:49:31.800Z,23.17
2019-02-19T18:51:33.401Z,23.33
2019-02-19T18:53:35.016Z,23.46
2019-02-19T18:55:36.662Z,23.34
2019-02-19T18:57:38.280Z,23.31
2019-02-19T18:59:39.887Z,23.19
2019-02-19T19:01:41.546Z,23.17
2019-02-19T19:03:43.163Z,23.22
2019-02-19T19:05:44.776Z,23.07
2019-02-19T19:07:46.379Z,23.05
2019-02-19T19:09:48.208Z,23.09
2019-02-19T19:11:49.880Z,23.13
2019-02-19T19:13:51.892Z,23.19
2019-02-19T19:15:53.564Z,23.09
2019-02-19T19:17:55.178Z,23.33
2019-02-19T19:19:56.833Z,23.39
2019-02-19T19:21:58.449Z,23.23
2019-02-19T19:24:00.056Z,22.95
2019-02-19T19:26:01.695Z,23.05
2019-02-19T19:28:03.297Z,23.21
2019-02-19T19:30:04.932Z,23.28
2019-02-19T19:32:06.529Z,23.31
2019-02-19T19:34:08.159Z,23.29
2019-02-19T19:36:09.800Z,23.24
2019-02-19T19:38:11.389Z,23.21
2019-02-19T19:40:13.052Z,23.15
2019-02-19T19:42:14.654Z,23.13
2019-02-19T19:44:16.245Z,23.13
2019-02-19T19:46:18.837Z,23.12
2019-02-19T19:48:20.455Z,23.11
2019-02-19T19:50:22.096Z,23.15
2019-02-19T19:52:23.783Z,23.20
2019-02-19T19:54:25.396Z,23.44
2019-02-19T19:56:27.085Z,23.45
2019-02-19T19:58:28.705Z,23.48
2019-02-19T20:00:30.353Z,23.48
2019-02-19T20:02:32.020Z,23.21
2019-02-19T20:04:33.649Z,22.55
2019-02-19T20:06:35.313Z,22.35
2019-02-19T20:08:37.312Z,22.42
2019-02-19T20:10:38.926Z,22.54
2019-02-19T20:12:40.571Z,22.57
2019-02-19T20:14:42.240Z,22.57
2019-02-19T20:16:43.926Z,22.57
2019-02-19T20:18:45.700Z,22.37
2019-02-19T20:20:47.392Z,22.61
2019-02-19T20:22:49.011Z,22.65
2019-02-19T20:24:50.685Z,22.62
2019-02-19T20:26:52.494Z,22.60
2019-02-19T20:28:54.103Z,22.61
2019-02-19T20:30:55.706Z,22.62
2019-02-19T20:32:57.946Z,22.59
2019-02-19T20:34:59.595Z,22.60
2019-02-19T20:37:01.212Z,22.56
2019-02-19T20:39:02.828Z,22.66
2019-02-19T20:41:04.938Z,22.68
2019-02-19T20:43:06.550Z,22.74
2019-02-19T20:45:08.157Z,22.81
2019-02-19T20:47:09.797Z,22.93
2019-02-19T20:49:11.402Z,23.12
2019-02-19T20:51:13.006Z,23.20
2019-02-19T20:53:14.602Z,23.08
2019-02-19T20:55:16.229Z,23.09
2019-02-19T20:57:18.523Z,23.08
2019-02-19T20:59:20.178Z,23.09
2019-02-19T21:01:22.635Z,22.95
2019-02-19T21:03:24.242Z,22.71
2019-02-19T21:05:25.853Z,22.79
2019-02-19T21:07:27.467Z,23.21
2019-02-19T21:09:29.081Z,23.39
2019-02-19T21:11:30.692Z,23.15
2019-02-19T21:13:32.318Z,23.06
2019-02-19T21:15:33.927Z,23.04
2019-02-19T21:17:35.544Z,22.86
2019-02-19T21:19:37.195Z,23.08
2019-02-19T21:21:44.762Z,23.08
2019-02-19T21:23:40.488Z,23.04
2019-02-19T21:25:42.125Z,23.00
2019-02-19T21:27:43.725Z,23.03
2019-02-19T21:29:45.336Z,23.00
2019-02-19T21:31:46.952Z,22.98
2019-02-19T21:33:48.602Z,22.94
2019-02-19T21:35:50.203Z,22.90
2019-02-19T21:37:51.789Z,23.18
2019-02-19T21:39:53.396Z,22.65
2019-02-19T21:41:55.036Z,20.16
2019-02-19T21:43:56.645Z,18.98
2019-02-19T21:45:58.271Z,19.90
2019-02-19T21:47:59.859Z,20.82
2019-02-19T21:50:01.474Z,21.25
2019-02-19T21:52:03.101Z,21.42
2019-02-19T21:54:04.707Z,21.48
2019-02-19T21:56:06.355Z,21.49
2019-02-19T21:58:07.970Z,21.46
2019-02-19T22:00:09.587Z,21.48
2019-02-19T22:02:16.347Z,21.53
2019-02-19T22:04:12.869Z,21.55
2019-02-19T22:06:14.466Z,21.62
2019-02-19T22:08:16.052Z,21.66
2019-02-19T22:10:17.647Z,21.72
2019-02-19T22:12:19.248Z,21.78
2019-02-19T22:14:20.860Z,21.83
2019-02-19T22:16:22.491Z,21.85
2019-02-19T22:18:24.132Z,21.91
2019-02-19T22:20:42.471Z,21.93
2019-02-19T22:22:44.076Z,21.91
2019-02-19T22:24:45.688Z,21.85
2019-02-19T22:26:47.328Z,21.81
2019-02-19T22:28:48.980Z,21.81
2019-02-19T22:30:50.596Z,21.62
2019-02-19T22:32:52.198Z,21.87
2019-02-19T22:34:53.779Z,21.90
2019-02-19T22:36:55.414Z,21.93
2019-02-19T22:38:57.024Z,21.94
2019-02-19T22:40:58.623Z,21.96
2019-02-19T22:43:00.217Z,21.92
2019-02-19T22:45:01.861Z,21.88
2019-02-19T22:47:03.511Z,21.80
2019-02-19T22:49:05.149Z,21.75
2019-02-19T22:51:06.761Z,21.75
2019-02-19T22:53:08.357Z,21.76
2019-02-19T22:55:24.834Z,21.78
2019-02-19T22:57:26.425Z,21.83
2019-02-19T22:59:28.019Z,21.80
2019-02-19T23:01:30.128Z,21.83
2019-02-19T23:03:31.725Z,21.88
2019-02-19T23:05:33.317Z,21.86
2019-02-19T23:07:34.922Z,21.90
2019-02-19T23:09:36.525Z,21.90
2019-02-19T23:11:38.153Z,21.89
2019-02-19T23:13:39.762Z,21.84
2019-02-19T23:15:41.375Z,21.77
2019-02-19T23:17:43.005Z,21.73
2019-02-19T23:19:44.611Z,21.70
2019-02-19T23:21:46.252Z,21.65
2019-02-19T23:23:47.854Z,21.75
2019-02-19T23:25:49.464Z,21.77
2019-02-19T23:27:51.083Z,21.78
2019-02-19T23:29:52.688Z,21.79
2019-02-19T23:31:54.290Z,21.82
2019-02-19T23:33:55.938Z,21.82
2019-02-19T23:35:58.957Z,21.85
2019-02-19T23:38:00.579Z,21.86
2019-02-19T23:40:02.211Z,21.89
2019-02-19T23:42:03.824Z,21.87
2019-02-19T23:44:05.431Z,21.84
2019-02-19T23:46:07.058Z,21.81
2019-02-19T23:48:08.679Z,21.76
2019-02-19T23:50:10.264Z,21.73
2019-02-19T23:52:11.915Z,21.71
2019-02-19T23:54:13.544Z,21.69
2019-02-19T23:56:15.208Z,21.70
2019-02-19T23:58:16.814Z,21.73
